createdAt,value
2023-05-15T00:01:40.302Z,98793.31
2023-05-15T00:04:08.580Z,98792.78
2023-05-15T00:06:37.161Z,98786.31
2023-05-15T00:09:05.477Z,98790.13
2023-05-15T00:11:33.630Z,98782.22
2023-05-15T00:14:03.431Z,98795.84
2023-05-15T00:16:31.474Z,98788.66
2023-05-15T00:19:00.038Z,98792.16
2023-05-15T00:21:29.940Z,98788.75
2023-05-15T00:23:59.529Z,98799.97
2023-05-15T00:26:27.839Z,98806.22
2023-05-15T00:28:56.051Z,98793.84
2023-05-15T00:31:25.798Z,98786.63
2023-05-15T00:33:54.144Z,98783.66
2023-05-15T00:36:24.454Z,98787.16
2023-05-15T00:38:52.618Z,98777.44
2023-05-15T00:41:31.258Z,98774.69
2023-05-15T00:44:00.891Z,98781.69
2023-05-15T00:46:33.389Z,98781.88
2023-05-15T00:49:02.736Z,98779.47
2023-05-15T00:51:31.544Z,98774.81
2023-05-15T00:54:00.720Z,98773.63
2023-05-15T00:56:31.755Z,98772.03
2023-05-15T00:59:01.109Z,98764.28
2023-05-15T01:01:34.688Z,98764.16
2023-05-15T01:04:07.784Z,98765.84
2023-05-15T01:06:36.245Z,98763.53
2023-05-15T01:09:05.611Z,98765.22
2023-05-15T01:11:39.782Z,98760.03
2023-05-15T01:14:09.735Z,98763.53
2023-05-15T01:16:39.327Z,98762.34
2023-05-15T01:19:07.731Z,98760.16
2023-05-15T01:22:15.488Z,98761.50
2023-05-15T01:25:06.989Z,98761.28
2023-05-15T01:27:41.081Z,98762.47
2023-05-15T01:30:16.752Z,98762.34
2023-05-15T01:32:51.717Z,98761.91
2023-05-15T01:35:25.298Z,98756.28
2023-05-15T01:38:12.259Z,98750.69
2023-05-15T01:40:43.349Z,98752.03
2023-05-15T01:43:19.369Z,98750.66
2023-05-15T01:45:47.956Z,98743.28
2023-05-15T01:48:17.071Z,98744.50
2023-05-15T01:50:47.306Z,98741.75
2023-05-15T01:53:17.006Z,98745.78
2023-05-15T01:55:46.408Z,98746.97
2023-05-15T01:58:17.805Z,98752.66
2023-05-15T02:00:49.907Z,98744.22
2023-05-15T02:03:20.778Z,98753.00
2023-05-15T02:05:49.621Z,98745.00
2023-05-15T02:08:18.198Z,98744.47
2023-05-15T02:10:49.534Z,98739.09
2023-05-15T02:13:20.116Z,98738.81
2023-05-15T02:15:49.015Z,98747.66
2023-05-15T02:18:17.543Z,98736.66
2023-05-15T02:20:46.042Z,98737.41
2023-05-15T02:23:14.475Z,98742.69
2023-05-15T02:25:51.771Z,98753.84
2023-05-15T02:28:30.208Z,98745.31
2023-05-15T02:31:03.171Z,98759.06
2023-05-15T02:33:37.178Z,98753.16
2023-05-15T02:36:09.433Z,98753.69
2023-05-15T02:38:46.156Z,98747.00
2023-05-15T02:41:16.597Z,98745.09
2023-05-15T02:43:51.785Z,98736.13
2023-05-15T02:46:21.631Z,98735.00
2023-05-15T02:48:50.608Z,98748.28
2023-05-15T02:51:19.410Z,98741.78
2023-05-15T02:53:47.898Z,98737.50
2023-05-15T02:56:17.440Z,98741.47
2023-05-15T02:58:48.579Z,98737.56
2023-05-15T03:01:17.965Z,98738.50
2023-05-15T03:03:46.415Z,98736.50
2023-05-15T03:06:14.869Z,98734.81
2023-05-15T03:08:43.159Z,98739.44
2023-05-15T03:11:11.653Z,98737.28
2023-05-15T03:13:39.978Z,98737.19
2023-05-15T03:16:09.990Z,98734.75
2023-05-15T03:18:40.825Z,98730.31
2023-05-15T03:21:09.404Z,98727.78
2023-05-15T03:23:38.392Z,98735.81
2023-05-15T03:26:06.569Z,98731.84
2023-05-15T03:28:36.499Z,98726.63
2023-05-15T03:31:08.156Z,98726.25
2023-05-15T03:33:38.400Z,98728.13
2023-05-15T03:36:08.083Z,98725.88
2023-05-15T03:38:36.500Z,98728.13
2023-05-15T03:41:04.942Z,98733.91
2023-05-15T03:43:36.700Z,98728.91
2023-05-15T03:46:07.472Z,98729.31
2023-05-15T03:48:35.944Z,98724.31
2023-05-15T03:51:06.129Z,98723.19
2023-05-15T03:53:34.672Z,98728.50
2023-05-15T03:56:04.995Z,98724.28
2023-05-15T03:58:33.276Z,98721.91
2023-05-15T04:01:02.083Z,98716.00
2023-05-15T04:03:30.541Z,98720.31
2023-05-15T04:05:59.146Z,98724.56
2023-05-15T04:08:29.335Z,98727.75
2023-05-15T04:10:57.433Z,98723.56
2023-05-15T04:13:25.810Z,98724.72
2023-05-15T04:15:55.377Z,98723.94
2023-05-15T04:18:23.874Z,98726.19
2023-05-15T04:20:53.541Z,98724.63
2023-05-15T04:23:23.791Z,98726.50
2023-05-15T04:25:55.128Z,98727.88
2023-05-15T04:28:24.118Z,98731.47
2023-05-15T04:30:52.735Z,98728.50
2023-05-15T04:33:21.056Z,98723.06
2023-05-15T04:35:49.566Z,98723.00
2023-05-15T04:38:17.820Z,98728.88
2023-05-15T04:40:46.991Z,98723.72
2023-05-15T04:43:17.092Z,98720.34
2023-05-15T04:45:45.558Z,98728.69
2023-05-15T04:48:13.813Z,98723.09
2023-05-15T04:50:42.013Z,98718.63
2023-05-15T04:53:11.691Z,98730.06
2023-05-15T04:55:40.066Z,98725.72
2023-05-15T04:58:11.013Z,98724.78
2023-05-15T05:00:41.279Z,98728.53
2023-05-15T05:03:09.786Z,98729.50
2023-05-15T05:05:38.176Z,98724.19
2023-05-15T05:08:06.793Z,98725.59
2023-05-15T05:10:34.858Z,98717.66
2023-05-15T05:13:03.500Z,98729.72
2023-05-15T05:15:33.622Z,98730.06
2023-05-15T05:18:03.555Z,98737.78
2023-05-15T05:20:32.540Z,98740.84
2023-05-15T05:23:00.837Z,98738.94
2023-05-15T05:25:29.172Z,98747.31
2023-05-15T05:27:57.258Z,98739.94
2023-05-15T05:30:25.851Z,98744.84
2023-05-15T05:32:54.253Z,98745.06
2023-05-15T05:35:24.816Z,98743.84
2023-05-15T05:37:53.760Z,98739.59
2023-05-15T05:40:24.910Z,98742.53
2023-05-15T05:42:54.743Z,98746.03
2023-05-15T05:45:23.234Z,98743.81
2023-05-15T05:47:52.047Z,98744.50
2023-05-15T05:50:21.019Z,98751.06
2023-05-15T05:52:50.602Z,98756.59
2023-05-15T05:55:18.761Z,98747.88
2023-05-15T05:57:47.215Z,98747.81
2023-05-15T06:00:16.424Z,98739.34
2023-05-15T06:02:44.830Z,98743.59
2023-05-15T06:05:13.277Z,98746.38
2023-05-15T06:07:41.591Z,98743.53
2023-05-15T06:10:13.234Z,98745.03
2023-05-15T06:12:41.317Z,98744.16
2023-05-15T06:15:10.084Z,98742.78
2023-05-15T06:17:41.997Z,98746.47
2023-05-15T06:20:12.227Z,98745.56
2023-05-15T06:22:40.823Z,98737.06
2023-05-15T06:25:14.360Z,98743.25
2023-05-15T06:27:42.830Z,98740.63
2023-05-15T06:30:12.414Z,98732.56
2023-05-15T06:32:44.027Z,98734.41
2023-05-15T06:35:12.508Z,98734.69
2023-05-15T06:37:41.913Z,98742.78
2023-05-15T06:40:12.983Z,98737.81
2023-05-15T06:42:41.455Z,98740.16
2023-05-15T06:45:11.334Z,98741.84
2023-05-15T06:47:39.567Z,98739.25
2023-05-15T06:50:08.687Z,98740.63
2023-05-15T06:52:37.334Z,98742.94
2023-05-15T06:55:08.898Z,98747.66
2023-05-15T06:57:38.850Z,98744.72
2023-05-15T07:00:10.251Z,98746.06
2023-05-15T07:02:39.126Z,98743.88
2023-05-15T07:05:09.054Z,98741.31
2023-05-15T07:07:37.350Z,98734.16
2023-05-15T07:10:08.463Z,98728.47
2023-05-15T07:12:39.095Z,98716.50
2023-05-15T07:15:10.584Z,98711.00
2023-05-15T07:17:39.544Z,98717.78
2023-05-15T07:20:09.098Z,98708.66
2023-05-15T07:22:44.477Z,98700.13
2023-05-15T07:25:17.198Z,98695.66
2023-05-15T07:27:45.584Z,98689.75
2023-05-15T07:30:16.571Z,98694.63
2023-05-15T07:32:45.065Z,98690.50
2023-05-15T07:35:13.593Z,98681.59
2023-05-15T07:37:42.402Z,98687.53
2023-05-15T07:40:12.597Z,98687.69
2023-05-15T07:42:41.312Z,98689.50
2023-05-15T07:45:10.462Z,98682.03
2023-05-15T07:47:40.751Z,98677.66
2023-05-15T07:50:09.910Z,98674.56
2023-05-15T07:52:38.309Z,98665.31
2023-05-15T07:55:07.357Z,98661.97
2023-05-15T07:57:35.952Z,98659.31
2023-05-15T08:00:10.405Z,98662.38
2023-05-15T08:02:40.118Z,98656.63
2023-05-15T08:05:10.794Z,98651.81
2023-05-15T08:07:39.181Z,98655.91
2023-05-15T08:10:08.752Z,98643.41
2023-05-15T08:12:37.066Z,98652.16
2023-05-15T08:15:05.881Z,98649.41
2023-05-15T08:17:34.288Z,98638.16
2023-05-15T08:20:05.280Z,98645.41
2023-05-15T08:22:33.722Z,98644.72
2023-05-15T08:25:04.046Z,98657.50
2023-05-15T08:27:32.717Z,98643.25
2023-05-15T08:30:02.475Z,98632.75
2023-05-15T08:32:31.034Z,98647.00
2023-05-15T08:34:59.741Z,98634.34
2023-05-15T08:37:29.710Z,98632.97
2023-05-15T08:40:01.110Z,98637.47
2023-05-15T08:42:34.524Z,98642.06
2023-05-15T08:45:03.709Z,98638.88
2023-05-15T08:47:36.132Z,98639.22
2023-05-15T08:50:12.476Z,98638.38
2023-05-15T08:52:43.439Z,98629.75
2023-05-15T08:55:12.824Z,98627.81
2023-05-15T08:57:42.390Z,98621.72
2023-05-15T09:00:14.786Z,98617.22
2023-05-15T09:02:44.342Z,98613.41
2023-05-15T09:05:14.295Z,98610.19
2023-05-15T09:07:48.662Z,98608.84
2023-05-15T09:10:18.781Z,98605.00
2023-05-15T09:12:47.267Z,98606.41
2023-05-15T09:15:18.120Z,98611.66
2023-05-15T09:17:47.665Z,98599.06
2023-05-15T09:20:31.615Z,98606.69
2023-05-15T09:23:04.247Z,98608.56
2023-05-15T09:25:38.868Z,98592.78
2023-05-15T09:28:08.274Z,98594.47
2023-05-15T09:30:39.509Z,98589.41
2023-05-15T09:33:08.697Z,98589.28
2023-05-15T09:35:42.384Z,98593.06
2023-05-15T09:38:15.663Z,98593.50
2023-05-15T09:40:43.917Z,98587.53
2023-05-15T09:43:13.047Z,98595.38
2023-05-15T09:45:41.571Z,98597.13
2023-05-15T09:48:12.404Z,98593.91
2023-05-15T09:50:42.953Z,98582.75
2023-05-15T09:55:50.551Z,98586.47
2023-05-15T09:58:20.362Z,98585.63
2023-05-15T10:00:49.855Z,98576.38
2023-05-15T10:03:19.817Z,98582.78
2023-05-15T10:05:48.597Z,98587.50
2023-05-15T10:08:28.608Z,98578.00
2023-05-15T10:11:01.122Z,98584.84
2023-05-15T10:13:35.251Z,98591.44
2023-05-15T10:16:06.203Z,98599.97
2023-05-15T10:18:38.253Z,98607.06
2023-05-15T10:21:12.080Z,98601.34
2023-05-15T10:23:44.671Z,98603.94
2023-05-15T10:26:17.200Z,98604.69
2023-05-15T10:28:50.233Z,98603.31
2023-05-15T10:31:22.559Z,98604.91
2023-05-15T10:33:52.735Z,98617.91
2023-05-15T10:36:21.818Z,98609.31
2023-05-15T10:38:52.476Z,98610.16
2023-05-15T10:41:23.040Z,98597.00
2023-05-15T10:43:51.458Z,98601.19
2023-05-15T10:46:21.135Z,98592.44
2023-05-15T10:48:50.200Z,98592.13
2023-05-15T10:51:19.053Z,98598.16
2023-05-15T10:53:48.062Z,98598.00
2023-05-15T10:56:19.785Z,98593.41
2023-05-15T10:58:49.549Z,98592.22
2023-05-15T11:01:39.190Z,98589.97
2023-05-15T11:04:11.641Z,98587.88
2023-05-15T11:06:41.981Z,98580.06
2023-05-15T11:09:41.339Z,98575.41
2023-05-15T11:12:14.744Z,98580.91
2023-05-15T11:14:45.157Z,98574.03
2023-05-15T11:17:18.386Z,98577.63
2023-05-15T11:20:05.143Z,98575.13
2023-05-15T11:22:37.855Z,98572.88
2023-05-15T11:25:09.448Z,98568.59
2023-05-15T11:27:45.216Z,98573.00
2023-05-15T11:30:18.432Z,98575.84
2023-05-15T11:32:56.348Z,98569.16
2023-05-15T11:35:28.790Z,98567.81
2023-05-15T11:38:07.775Z,98572.41
2023-05-15T11:40:46.799Z,98574.44
2023-05-15T11:43:26.013Z,98569.88
2023-05-15T11:45:56.565Z,98575.00
2023-05-15T11:48:26.424Z,98566.75
2023-05-15T11:50:56.245Z,98565.59
2023-05-15T11:53:25.130Z,98578.34
2023-05-15T11:55:54.946Z,98570.97
2023-05-15T11:58:27.722Z,98569.38
2023-05-15T12:00:56.722Z,98565.03
2023-05-15T12:03:26.868Z,98558.94
2023-05-15T12:06:04.024Z,98561.66
2023-05-15T12:08:37.895Z,98574.66
2023-05-15T12:11:08.034Z,98566.88
2023-05-15T12:13:38.549Z,98563.72
2023-05-15T12:16:09.243Z,98566.25
2023-05-15T12:18:41.701Z,98557.69
2023-05-15T12:21:13.805Z,98560.44
2023-05-15T12:23:48.761Z,98564.53
2023-05-15T12:26:29.876Z,98562.47
2023-05-15T12:29:01.028Z,98562.09
2023-05-15T12:31:30.070Z,98557.72
2023-05-15T12:33:58.743Z,98548.50
2023-05-15T12:36:33.141Z,98555.00
2023-05-15T12:39:09.837Z,98547.34
2023-05-15T12:41:40.551Z,98543.84
2023-05-15T12:44:18.660Z,98543.88
2023-05-15T12:46:48.714Z,98545.91
2023-05-15T12:49:23.255Z,98544.13
2023-05-15T12:51:52.180Z,98547.41
2023-05-15T12:54:21.996Z,98543.00
2023-05-15T12:56:51.390Z,98545.47
2023-05-15T12:59:21.224Z,98540.19
2023-05-15T13:01:50.676Z,98545.84
2023-05-15T13:04:19.630Z,98548.16
2023-05-15T13:06:48.739Z,98552.78
2023-05-15T13:09:23.810Z,98546.03
2023-05-15T13:11:52.907Z,98545.66
2023-05-15T13:14:29.774Z,98552.06
2023-05-15T13:17:03.756Z,98551.25
2023-05-15T13:19:33.395Z,98542.09
2023-05-15T13:22:02.923Z,98542.31
2023-05-15T13:24:33.175Z,98536.09
2023-05-15T13:27:05.087Z,98543.16
2023-05-15T13:29:35.808Z,98541.00
2023-05-15T13:32:06.814Z,98533.81
2023-05-15T13:34:35.876Z,98528.19
2023-05-15T13:37:04.617Z,98536.72
2023-05-15T13:39:33.115Z,98535.59
2023-05-15T13:42:02.456Z,98535.63
2023-05-15T13:44:32.414Z,98538.94
2023-05-15T13:47:04.795Z,98534.16
2023-05-15T13:49:33.632Z,98527.59
2023-05-15T13:52:05.057Z,98535.03
2023-05-15T13:54:33.898Z,98531.19
2023-05-15T13:57:02.882Z,98534.78
2023-05-15T13:59:32.018Z,98541.94
2023-05-15T14:02:02.910Z,98544.19
2023-05-15T14:04:31.672Z,98538.81
2023-05-15T14:07:00.356Z,98537.88
2023-05-15T14:09:29.163Z,98530.69
2023-05-15T14:11:58.594Z,98535.53
2023-05-15T14:14:27.417Z,98533.56
2023-05-15T14:16:56.401Z,98528.25
2023-05-15T14:19:30.986Z,98539.44
2023-05-15T14:21:59.698Z,98542.50
2023-05-15T14:24:29.214Z,98545.84
2023-05-15T14:26:57.861Z,98542.31
2023-05-15T14:29:27.697Z,98546.19
2023-05-15T14:31:57.240Z,98545.19
2023-05-15T14:34:26.125Z,98539.34
2023-05-15T14:37:00.560Z,98549.78
2023-05-15T14:39:50.300Z,98546.09
2023-05-15T14:42:25.822Z,98549.06
2023-05-15T14:44:57.355Z,98546.34
2023-05-15T14:47:37.139Z,98551.38
2023-05-15T14:50:14.830Z,98547.91
2023-05-15T14:52:51.299Z,98556.13
2023-05-15T14:55:29.393Z,98557.88
2023-05-15T14:58:01.487Z,98559.03
2023-05-15T15:00:33.948Z,98555.78
2023-05-15T15:06:07.536Z,98562.09
2023-05-15T15:08:43.163Z,98566.91
2023-05-15T15:11:22.100Z,98567.91
2023-05-15T15:13:55.505Z,98577.72
2023-05-15T15:16:26.313Z,98575.91
2023-05-15T15:18:57.881Z,98577.75
2023-05-15T15:21:30.938Z,98580.09
2023-05-15T15:24:05.563Z,98577.31
2023-05-15T15:26:39.332Z,98591.75
2023-05-15T15:29:10.270Z,98593.13
2023-05-15T15:31:43.630Z,98590.53
2023-05-15T15:34:18.668Z,98587.34
2023-05-15T15:36:54.647Z,98576.00
2023-05-15T15:39:37.023Z,98571.97
2023-05-15T15:42:09.770Z,98579.59
2023-05-15T15:44:41.104Z,98569.38
2023-05-15T15:47:10.724Z,98570.56
2023-05-15T15:49:43.068Z,98572.38
2023-05-15T15:52:19.877Z,98576.31
2023-05-15T15:54:55.391Z,98567.69
2023-05-15T15:57:37.677Z,98572.72
2023-05-15T16:00:15.482Z,98571.28
2023-05-15T16:02:48.972Z,98576.94
2023-05-15T16:05:21.244Z,98580.16
2023-05-15T16:07:55.490Z,98572.09
2023-05-15T16:10:29.716Z,98573.19
2023-05-15T16:13:01.765Z,98582.75
2023-05-15T16:15:34.533Z,98578.97
2023-05-15T16:18:06.106Z,98575.63
2023-05-15T16:20:38.884Z,98582.97
2023-05-15T16:23:12.660Z,98573.41
2023-05-15T16:25:53.814Z,98571.28
2023-05-15T16:28:23.495Z,98570.16
2023-05-15T16:30:53.236Z,98561.88
2023-05-15T16:33:25.334Z,98571.88
2023-05-15T16:36:03.922Z,98571.22
2023-05-15T16:38:38.292Z,98568.94
2023-05-15T16:41:13.771Z,98561.44
2023-05-15T16:43:44.701Z,98575.38
2023-05-15T16:46:16.053Z,98571.91
2023-05-15T16:48:48.600Z,98574.53
2023-05-15T16:51:24.106Z,98573.97
2023-05-15T16:53:57.468Z,98581.00
2023-05-15T16:56:32.209Z,98572.09
2023-05-15T16:59:10.806Z,98582.47
2023-05-15T17:01:43.995Z,98582.56
2023-05-15T17:04:20.766Z,98585.94
2023-05-15T17:06:53.873Z,98581.28
2023-05-15T17:09:29.660Z,98581.66
2023-05-15T17:12:07.548Z,98578.91
2023-05-15T17:14:40.120Z,98576.78
2023-05-15T17:17:12.474Z,98582.34
2023-05-15T17:19:42.816Z,98577.00
2023-05-15T17:22:21.234Z,98581.81
2023-05-15T17:24:58.090Z,98581.81
2023-05-15T17:27:35.421Z,98581.34
2023-05-15T17:30:08.894Z,98584.09
2023-05-15T17:32:43.898Z,98578.47
2023-05-15T17:35:17.111Z,98583.34
2023-05-15T17:37:53.062Z,98584.16
2023-05-15T17:40:23.964Z,98585.34
2023-05-15T17:42:54.264Z,98589.88
2023-05-15T17:45:28.050Z,98583.69
2023-05-15T17:48:03.843Z,98591.16
2023-05-15T17:50:33.646Z,98588.19
2023-05-15T17:53:03.415Z,98604.91
2023-05-15T17:55:34.254Z,98599.44
2023-05-15T17:58:04.691Z,98598.16
2023-05-15T18:00:36.366Z,98596.88
2023-05-15T18:03:14.192Z,98608.41
2023-05-15T18:05:45.915Z,98605.81
2023-05-15T18:08:16.810Z,98612.53
2023-05-15T18:10:50.732Z,98608.63
2023-05-15T18:13:23.703Z,98618.97
2023-05-15T18:16:06.721Z,98619.34
2023-05-15T18:18:38.589Z,98616.97
2023-05-15T18:21:10.788Z,98636.00
2023-05-15T18:23:44.341Z,98637.94
2023-05-15T18:26:18.221Z,98631.81
2023-05-15T18:29:06.393Z,98629.34
2023-05-15T18:31:41.884Z,98633.63
2023-05-15T18:34:11.132Z,98639.22
2023-05-15T18:36:42.108Z,98645.53
2023-05-15T18:39:16.824Z,98648.06
2023-05-15T18:41:48.719Z,98648.63
2023-05-15T18:44:18.664Z,98658.91
2023-05-15T18:46:46.807Z,98662.16
2023-05-15T18:49:19.463Z,98665.16
2023-05-15T18:51:47.722Z,98660.25
2023-05-15T18:54:17.690Z,98671.75
2023-05-15T18:56:45.986Z,98671.63
2023-05-15T18:59:15.600Z,98679.47
2023-05-15T19:01:46.546Z,98679.06
2023-05-15T19:04:15.112Z,98681.72
2023-05-15T19:06:44.509Z,98685.56
2023-05-15T19:09:13.655Z,98692.72
2023-05-15T19:11:43.185Z,98690.19
2023-05-15T19:14:15.512Z,98696.66
2023-05-15T19:16:51.287Z,98696.19
2023-05-15T19:19:26.187Z,98701.25
2023-05-15T19:21:57.439Z,98707.69
2023-05-15T19:24:36.004Z,98708.69
2023-05-15T19:27:10.217Z,98721.72
2023-05-15T19:29:43.097Z,98717.25
2023-05-15T19:32:17.221Z,98721.22
2023-05-15T19:34:52.855Z,98717.19
2023-05-15T19:37:27.971Z,98715.63
2023-05-15T19:39:59.108Z,98719.13
2023-05-15T19:42:33.297Z,98720.56
2023-05-15T19:45:07.782Z,98712.00
2023-05-15T19:47:40.228Z,98718.13
2023-05-15T19:50:17.503Z,98726.56
2023-05-15T19:52:52.634Z,98723.75
2023-05-15T19:55:26.805Z,98729.94
2023-05-15T19:57:59.582Z,98737.25
2023-05-15T20:00:37.090Z,98739.44
2023-05-15T20:03:12.203Z,98744.38
2023-05-15T20:05:43.899Z,98742.84
2023-05-15T20:08:18.754Z,98752.38
2023-05-15T20:10:57.663Z,98756.34
2023-05-15T20:13:37.483Z,98760.31
2023-05-15T20:16:21.282Z,98768.19
2023-05-15T20:18:57.283Z,98764.69
2023-05-15T20:21:28.772Z,98771.00
2023-05-15T20:24:00.930Z,98763.16
2023-05-15T20:26:34.240Z,98773.78
2023-05-15T20:29:05.901Z,98774.69
2023-05-15T20:31:41.116Z,98788.41
2023-05-15T20:34:22.472Z,98790.88
2023-05-15T20:36:55.395Z,98793.91
2023-05-15T20:39:27.495Z,98786.00
2023-05-15T20:42:02.281Z,98795.97
2023-05-15T20:44:43.459Z,98795.91
2023-05-15T20:47:18.734Z,98799.91
2023-05-15T20:49:54.798Z,98797.59
2023-05-15T20:52:28.935Z,98805.94
2023-05-15T20:55:06.862Z,98806.72
2023-05-15T20:57:41.920Z,98798.59
2023-05-15T21:00:20.512Z,98792.19
2023-05-15T21:02:54.474Z,98803.69
2023-05-15T21:05:31.349Z,98794.25
2023-05-15T21:08:02.622Z,98801.94
2023-05-15T21:10:41.313Z,98801.59
2023-05-15T21:13:21.000Z,98806.50
2023-05-15T21:15:52.651Z,98805.53
2023-05-15T21:18:27.801Z,98806.56
2023-05-15T21:21:08.320Z,98812.06
2023-05-15T21:23:42.329Z,98810.00
2023-05-15T21:26:15.649Z,98806.38
2023-05-15T21:28:53.557Z,98807.72
2023-05-15T21:31:23.563Z,98813.03
2023-05-15T21:33:56.231Z,98812.00
2023-05-15T21:36:37.085Z,98818.66
2023-05-15T21:39:14.020Z,98823.16
2023-05-15T21:41:44.624Z,98815.38
2023-05-15T21:44:17.015Z,98824.06
2023-05-15T21:46:50.972Z,98816.84
2023-05-15T21:49:24.072Z,98818.91
2023-05-15T21:52:04.970Z,98819.50
2023-05-15T21:54:35.993Z,98816.38
2023-05-15T21:57:33.543Z,98820.22
2023-05-15T22:00:08.711Z,98817.22
2023-05-15T22:02:40.471Z,98811.78
2023-05-15T22:05:13.215Z,98818.91
2023-05-15T22:07:52.225Z,98814.91
2023-05-15T22:10:26.057Z,98810.03
2023-05-15T22:13:08.426Z,98815.91
2023-05-15T22:15:45.234Z,98821.59
2023-05-15T22:18:19.847Z,98811.81
2023-05-15T22:21:04.760Z,98823.72
2023-05-15T22:26:22.904Z,98827.34
2023-05-15T22:28:57.973Z,98828.31
2023-05-15T22:31:30.694Z,98833.31
2023-05-15T22:34:03.946Z,98830.25
2023-05-15T22:36:37.175Z,98842.81
2023-05-15T22:39:14.427Z,98839.81
2023-05-15T22:41:45.442Z,98840.41
2023-05-15T22:47:02.920Z,98842.41
2023-05-15T22:49:34.109Z,98852.63
2023-05-15T22:52:05.780Z,98848.16
2023-05-15T22:54:42.878Z,98854.06
2023-05-15T22:57:15.400Z,98858.22
2023-05-15T22:59:54.438Z,98862.22
2023-05-15T23:02:28.245Z,98857.22
2023-05-15T23:05:00.419Z,98858.84
2023-05-15T23:07:32.372Z,98854.72
2023-05-15T23:10:10.545Z,98850.38
2023-05-15T23:12:47.421Z,98854.56
2023-05-15T23:15:20.393Z,98855.69
2023-05-15T23:17:57.133Z,98863.63
2023-05-15T23:20:32.835Z,98860.66
2023-05-15T23:23:08.217Z,98870.34
2023-05-15T23:25:43.745Z,98864.59
2023-05-15T23:28:16.788Z,98867.03
2023-05-15T23:30:50.505Z,98878.00
2023-05-15T23:33:35.985Z,98880.81
2023-05-15T23:36:14.715Z,98888.25
2023-05-15T23:38:51.008Z,98884.84
2023-05-15T23:41:29.442Z,98886.94
2023-05-15T23:44:00.399Z,98880.81
2023-05-15T23:46:33.040Z,98883.06
2023-05-15T23:49:05.361Z,98879.56
2023-05-15T23:51:36.578Z,98885.91
2023-05-15T23:54:08.881Z,98874.91
2023-05-15T23:56:43.156Z,98886.09
2023-05-15T23:59:20.762Z,98878.44
